sensor_id;sensor_type;location;lat;lon;timestamp;P1;durP1;ratioP1;P2;durP2;ratioP2
34585;SDS011;20816;50.950;11.108;2023-03-01T00:01:03;7.80;;;3.33;;
34585;SDS011;20816;50.950;11.108;2023-03-01T00:03:34;4.90;;;3.40;;
34585;SDS011;20816;50.950;11.108;2023-03-01T00:06:01;5.93;;;3.17;;
34585;SDS011;20816;50.950;11.108;2023-03-01T00:08:29;8.80;;;3.47;;
34585;SDS011;20816;50.950;11.108;2023-03-01T00:11:03;5.67;;;2.67;;
34585;SDS011;20816;50.950;11.108;2023-03-01T00:13:31;2.40;;;2.20;;
34585;SDS011;20816;50.950;11.108;2023-03-01T00:15:58;5.13;;;2.70;;
34585;SDS011;20816;50.950;11.108;2023-03-01T00:18:24;6.37;;;2.60;;
34585;SDS011;20816;50.950;11.108;2023-03-01T00:20:54;3.83;;;2.37;;
34585;SDS011;20816;50.950;11.108;2023-03-01T00:23:26;5.43;;;2.70;;
34585;SDS011;20816;50.950;11.108;2023-03-01T00:25:53;5.13;;;3.33;;
34585;SDS011;20816;50.950;11.108;2023-03-01T00:28:20;9.73;;;3.63;;
34585;SDS011;20816;50.950;11.108;2023-03-01T00:30:47;5.63;;;3.40;;
34585;SDS011;20816;50.950;11.108;2023-03-01T00:33:14;8.77;;;4.47;;
34585;SDS011;20816;50.950;11.108;2023-03-01T00:35:40;7.80;;;3.37;;
34585;SDS011;20816;50.950;11.108;2023-03-01T00:38:07;10.57;;;4.30;;
34585;SDS011;20816;50.950;11.108;2023-03-01T00:40:34;4.90;;;2.47;;
34585;SDS011;20816;50.950;11.108;2023-03-01T00:43:02;7.23;;;3.83;;
34585;SDS011;20816;50.950;11.108;2023-03-01T00:45:29;5.17;;;2.80;;
34585;SDS011;20816;50.950;11.108;2023-03-01T00:47:57;6.27;;;3.53;;
34585;SDS011;20816;50.950;11.108;2023-03-01T00:50:24;9.37;;;3.60;;
34585;SDS011;20816;50.950;11.108;2023-03-01T00:52:55;4.33;;;3.43;;
34585;SDS011;20816;50.950;11.108;2023-03-01T00:55:22;12.77;;;3.97;;
34585;SDS011;20816;50.950;11.108;2023-03-01T00:57:49;6.90;;;3.37;;
34585;SDS011;20816;50.950;11.108;2023-03-01T01:00:15;3.97;;;2.73;;
34585;SDS011;20816;50.950;11.108;2023-03-01T01:02:43;5.10;;;3.70;;
34585;SDS011;20816;50.950;11.108;2023-03-01T01:05:11;7.77;;;4.10;;
34585;SDS011;20816;50.950;11.108;2023-03-01T01:07:39;9.00;;;4.13;;
34585;SDS011;20816;50.950;11.108;2023-03-01T01:10:05;12.03;;;4.67;;
34585;SDS011;20816;50.950;11.108;2023-03-01T01:12:32;6.77;;;3.80;;
34585;SDS011;20816;50.950;11.108;2023-03-01T01:14:59;5.67;;;3.97;;
34585;SDS011;20816;50.950;11.108;2023-03-01T01:17:26;6.60;;;2.60;;
34585;SDS011;20816;50.950;11.108;2023-03-01T01:19:52;11.80;;;4.70;;
34585;SDS011;20816;50.950;11.108;2023-03-01T01:22:19;4.20;;;3.47;;
34585;SDS011;20816;50.950;11.108;2023-03-01T01:24:45;5.27;;;3.70;;
34585;SDS011;20816;50.950;11.108;2023-03-01T01:27:12;10.17;;;3.73;;
34585;SDS011;20816;50.950;11.108;2023-03-01T01:29:39;8.13;;;4.23;;
34585;SDS011;20816;50.950;11.108;2023-03-01T01:32:05;7.87;;;4.40;;
34585;SDS011;20816;50.950;11.108;2023-03-01T01:34:32;9.97;;;5.37;;
34585;SDS011;20816;50.950;11.108;2023-03-01T01:36:58;11.07;;;3.97;;
34585;SDS011;20816;50.950;11.108;2023-03-01T01:39:29;5.80;;;3.13;;
34585;SDS011;20816;50.950;11.108;2023-03-01T01:41:55;6.90;;;3.30;;
34585;SDS011;20816;50.950;11.108;2023-03-01T01:44:24;12.90;;;5.07;;
34585;SDS011;20816;50.950;11.108;2023-03-01T01:46:59;11.50;;;4.03;;
34585;SDS011;20816;50.950;11.108;2023-03-01T01:52:07;7.80;;;4.10;;
34585;SDS011;20816;50.950;11.108;2023-03-01T01:54:39;11.10;;;4.47;;
34585;SDS011;20816;50.950;11.108;2023-03-01T01:57:12;9.30;;;4.10;;
34585;SDS011;20816;50.950;11.108;2023-03-01T01:59:43;6.00;;;2.97;;
34585;SDS011;20816;50.950;11.108;2023-03-01T02:02:12;8.23;;;4.97;;
34585;SDS011;20816;50.950;11.108;2023-03-01T02:04:39;11.50;;;5.27;;
34585;SDS011;20816;50.950;11.108;2023-03-01T02:07:09;8.80;;;4.03;;
34585;SDS011;20816;50.950;11.108;2023-03-01T02:09:42;9.70;;;3.90;;
34585;SDS011;20816;50.950;11.108;2023-03-01T02:12:21;7.93;;;3.40;;
34585;SDS011;20816;50.950;11.108;2023-03-01T02:14:50;11.93;;;5.20;;
34585;SDS011;20816;50.950;11.108;2023-03-01T02:17:17;7.60;;;4.60;;
34585;SDS011;20816;50.950;11.108;2023-03-01T02:19:53;10.93;;;4.97;;
34585;SDS011;20816;50.950;11.108;2023-03-01T02:22:33;8.60;;;3.73;;
34585;SDS011;20816;50.950;11.108;2023-03-01T02:28:04;12.53;;;4.40;;
34585;SDS011;20816;50.950;11.108;2023-03-01T02:30:35;8.63;;;4.63;;
34585;SDS011;20816;50.950;11.108;2023-03-01T02:33:02;10.90;;;3.43;;
34585;SDS011;20816;50.950;11.108;2023-03-01T02:35:32;8.47;;;4.50;;
34585;SDS011;20816;50.950;11.108;2023-03-01T02:38:06;6.47;;;3.37;;
34585;SDS011;20816;50.950;11.108;2023-03-01T02:40:34;5.13;;;3.03;;
34585;SDS011;20816;50.950;11.108;2023-03-01T02:43:04;4.37;;;3.30;;
34585;SDS011;20816;50.950;11.108;2023-03-01T02:45:35;9.67;;;3.53;;
34585;SDS011;20816;50.950;11.108;2023-03-01T02:48:01;7.50;;;3.27;;
34585;SDS011;20816;50.950;11.108;2023-03-01T02:55:40;7.23;;;4.33;;
34585;SDS011;20816;50.950;11.108;2023-03-01T02:58:06;10.07;;;2.97;;
34585;SDS011;20816;50.950;11.108;2023-03-01T03:00:37;8.83;;;4.30;;
34585;SDS011;20816;50.950;11.108;2023-03-01T03:03:10;5.33;;;2.70;;
34585;SDS011;20816;50.950;11.108;2023-03-01T03:05:41;8.57;;;4.23;;
34585;SDS011;20816;50.950;11.108;2023-03-01T03:08:08;4.67;;;4.23;;
34585;SDS011;20816;50.950;11.108;2023-03-01T03:10:36;7.43;;;4.30;;
34585;SDS011;20816;50.950;11.108;2023-03-01T03:13:07;9.43;;;3.57;;
34585;SDS011;20816;50.950;11.108;2023-03-01T03:15:36;6.27;;;3.23;;
34585;SDS011;20816;50.950;11.108;2023-03-01T03:18:04;5.27;;;3.80;;
34585;SDS011;20816;50.950;11.108;2023-03-01T03:20:33;5.70;;;3.47;;
34585;SDS011;20816;50.950;11.108;2023-03-01T03:23:00;10.80;;;4.40;;
34585;SDS011;20816;50.950;11.108;2023-03-01T03:25:27;8.23;;;2.77;;
34585;SDS011;20816;50.950;11.108;2023-03-01T03:27:55;9.07;;;4.53;;
34585;SDS011;20816;50.950;11.108;2023-03-01T03:30:32;5.57;;;2.93;;
34585;SDS011;20816;50.950;11.108;2023-03-01T03:32:59;9.20;;;3.63;;
34585;SDS011;20816;50.950;11.108;2023-03-01T03:35:32;8.20;;;3.33;;
34585;SDS011;20816;50.950;11.108;2023-03-01T03:38:04;12.93;;;3.77;;
34585;SDS011;20816;50.950;11.108;2023-03-01T03:40:33;13.20;;;3.63;;
34585;SDS011;20816;50.950;11.108;2023-03-01T03:43:06;5.47;;;2.00;;
34585;SDS011;20816;50.950;11.108;2023-03-01T03:45:34;7.53;;;3.17;;
34585;SDS011;20816;50.950;11.108;2023-03-01T03:48:02;8.30;;;4.50;;
34585;SDS011;20816;50.950;11.108;2023-03-01T03:50:31;7.43;;;2.80;;
34585;SDS011;20816;50.950;11.108;2023-03-01T03:53:02;6.00;;;2.80;;
34585;SDS011;20816;50.950;11.108;2023-03-01T03:55:31;3.73;;;3.10;;
34585;SDS011;20816;50.950;11.108;2023-03-01T03:58:00;3.83;;;2.70;;
34585;SDS011;20816;50.950;11.108;2023-03-01T04:00:38;9.33;;;5.47;;
34585;SDS011;20816;50.950;11.108;2023-03-01T04:03:06;5.53;;;3.00;;
34585;SDS011;20816;50.950;11.108;2023-03-01T04:05:34;6.37;;;2.87;;
34585;SDS011;20816;50.950;11.108;2023-03-01T04:08:02;4.03;;;3.33;;
34585;SDS011;20816;50.950;11.108;2023-03-01T04:10:29;2.20;;;2.10;;
34585;SDS011;20816;50.950;11.108;2023-03-01T04:12:57;3.93;;;2.47;;
34585;SDS011;20816;50.950;11.108;2023-03-01T04:15:24;10.40;;;2.63;;
34585;SDS011;20816;50.950;11.108;2023-03-01T04:17:53;2.20;;;2.10;;
34585;SDS011;20816;50.950;11.108;2023-03-01T04:20:22;6.07;;;3.63;;
34585;SDS011;20816;50.950;11.108;2023-03-01T04:22:59;14.60;;;4.20;;
34585;SDS011;20816;50.950;11.108;2023-03-01T04:25:38;7.10;;;2.93;;
34585;SDS011;20816;50.950;11.108;2023-03-01T04:28:11;6.63;;;2.93;;
34585;SDS011;20816;50.950;11.108;2023-03-01T04:30:38;5.50;;;2.67;;
34585;SDS011;20816;50.950;11.108;2023-03-01T04:33:05;7.33;;;3.77;;
34585;SDS011;20816;50.950;11.108;2023-03-01T04:35:33;11.63;;;3.73;;
34585;SDS011;20816;50.950;11.108;2023-03-01T04:38:01;3.67;;;2.63;;
34585;SDS011;20816;50.950;11.108;2023-03-01T04:40:27;3.40;;;1.77;;
34585;SDS011;20816;50.950;11.108;2023-03-01T04:42:54;4.70;;;3.47;;
34585;SDS011;20816;50.950;11.108;2023-03-01T04:45:21;8.43;;;3.83;;
34585;SDS011;20816;50.950;11.108;2023-03-01T04:47:48;12.83;;;4.17;;
34585;SDS011;20816;50.950;11.108;2023-03-01T04:50:15;11.47;;;4.93;;
34585;SDS011;20816;50.950;11.108;2023-03-01T04:52:46;8.00;;;3.57;;
34585;SDS011;20816;50.950;11.108;2023-03-01T04:55:13;4.83;;;3.00;;
34585;SDS011;20816;50.950;11.108;2023-03-01T04:57:40;5.73;;;3.03;;
34585;SDS011;20816;50.950;11.108;2023-03-01T05:00:07;2.67;;;2.47;;
34585;SDS011;20816;50.950;11.108;2023-03-01T05:02:53;9.53;;;4.80;;
34585;SDS011;20816;50.950;11.108;2023-03-01T05:05:33;8.17;;;3.17;;
34585;SDS011;20816;50.950;11.108;2023-03-01T05:08:03;4.73;;;2.53;;
34585;SDS011;20816;50.950;11.108;2023-03-01T05:10:32;4.97;;;2.57;;
34585;SDS011;20816;50.950;11.108;2023-03-01T05:13:02;5.37;;;3.43;;
34585;SDS011;20816;50.950;11.108;2023-03-01T05:15:30;6.50;;;2.30;;
34585;SDS011;20816;50.950;11.108;2023-03-01T05:17:58;6.67;;;3.43;;
34585;SDS011;20816;50.950;11.108;2023-03-01T05:20:26;7.57;;;3.30;;
34585;SDS011;20816;50.950;11.108;2023-03-01T05:22:55;6.20;;;2.97;;
34585;SDS011;20816;50.950;11.108;2023-03-01T05:25:25;4.73;;;2.27;;
34585;SDS011;20816;50.950;11.108;2023-03-01T05:27:52;6.23;;;2.63;;
34585;SDS011;20816;50.950;11.108;2023-03-01T05:30:18;8.77;;;4.40;;
34585;SDS011;20816;50.950;11.108;2023-03-01T05:32:46;6.93;;;3.07;;
34585;SDS011;20816;50.950;11.108;2023-03-01T05:35:17;5.63;;;3.33;;
34585;SDS011;20816;50.950;11.108;2023-03-01T05:37:46;11.13;;;3.10;;
34585;SDS011;20816;50.950;11.108;2023-03-01T05:40:16;4.53;;;2.10;;
34585;SDS011;20816;50.950;11.108;2023-03-01T05:42:48;5.50;;;4.20;;
34585;SDS011;20816;50.950;11.108;2023-03-01T05:45:16;3.23;;;2.07;;
34585;SDS011;20816;50.950;11.108;2023-03-01T05:47:44;5.37;;;3.30;;
34585;SDS011;20816;50.950;11.108;2023-03-01T05:50:16;8.17;;;4.43;;
34585;SDS011;20816;50.950;11.108;2023-03-01T05:52:48;3.57;;;1.97;;
34585;SDS011;20816;50.950;11.108;2023-03-01T05:55:18;5.87;;;2.97;;
34585;SDS011;20816;50.950;11.108;2023-03-01T05:57:47;5.07;;;3.17;;
34585;SDS011;20816;50.950;11.108;2023-03-01T06:00:15;6.40;;;2.93;;
34585;SDS011;20816;50.950;11.108;2023-03-01T06:02:43;2.90;;;2.67;;
34585;SDS011;20816;50.950;11.108;2023-03-01T06:05:10;5.40;;;3.10;;
34585;SDS011;20816;50.950;11.108;2023-03-01T06:07:39;3.43;;;1.80;;
34585;SDS011;20816;50.950;11.108;2023-03-01T06:10:06;3.80;;;1.87;;
34585;SDS011;20816;50.950;11.108;2023-03-01T06:12:35;3.80;;;2.43;;
34585;SDS011;20816;50.950;11.108;2023-03-01T06:15:03;4.57;;;3.77;;
34585;SDS011;20816;50.950;11.108;2023-03-01T06:17:32;4.97;;;3.87;;
34585;SDS011;20816;50.950;11.108;2023-03-01T06:22:34;4.97;;;2.83;;
34585;SDS011;20816;50.950;11.108;2023-03-01T06:25:00;4.07;;;2.60;;
34585;SDS011;20816;50.950;11.108;2023-03-01T06:27:29;3.57;;;2.63;;
34585;SDS011;20816;50.950;11.108;2023-03-01T06:29:56;3.67;;;3.10;;
34585;SDS011;20816;50.950;11.108;2023-03-01T06:32:23;5.13;;;2.53;;
34585;SDS011;20816;50.950;11.108;2023-03-01T06:34:50;3.20;;;2.77;;
34585;SDS011;20816;50.950;11.108;2023-03-01T06:37:18;4.67;;;2.80;;
34585;SDS011;20816;50.950;11.108;2023-03-01T06:39:44;9.27;;;3.40;;
34585;SDS011;20816;50.950;11.108;2023-03-01T06:42:11;9.00;;;3.00;;
34585;SDS011;20816;50.950;11.108;2023-03-01T06:44:38;6.63;;;3.17;;
34585;SDS011;20816;50.950;11.108;2023-03-01T06:47:04;6.00;;;3.07;;
34585;SDS011;20816;50.950;11.108;2023-03-01T06:49:31;9.33;;;3.20;;
34585;SDS011;20816;50.950;11.108;2023-03-01T06:51:58;11.53;;;3.83;;
34585;SDS011;20816;50.950;11.108;2023-03-01T06:54:25;6.90;;;4.10;;
34585;SDS011;20816;50.950;11.108;2023-03-01T06:56:51;8.67;;;4.17;;
34585;SDS011;20816;50.950;11.108;2023-03-01T06:59:18;4.70;;;2.80;;
34585;SDS011;20816;50.950;11.108;2023-03-01T07:01:45;6.83;;;3.50;;
34585;SDS011;20816;50.950;11.108;2023-03-01T07:04:12;16.77;;;5.57;;
34585;SDS011;20816;50.950;11.108;2023-03-01T07:06:40;8.13;;;4.13;;
34585;SDS011;20816;50.950;11.108;2023-03-01T07:09:06;5.73;;;4.27;;
34585;SDS011;20816;50.950;11.108;2023-03-01T07:11:33;5.30;;;2.83;;
34585;SDS011;20816;50.950;11.108;2023-03-01T07:13:59;7.57;;;4.53;;
34585;SDS011;20816;50.950;11.108;2023-03-01T07:16:26;11.97;;;5.43;;
34585;SDS011;20816;50.950;11.108;2023-03-01T07:18:53;8.80;;;4.37;;
34585;SDS011;20816;50.950;11.108;2023-03-01T07:21:20;8.87;;;5.00;;
34585;SDS011;20816;50.950;11.108;2023-03-01T07:23:49;10.90;;;4.93;;
34585;SDS011;20816;50.950;11.108;2023-03-01T07:26:16;6.97;;;4.67;;
34585;SDS011;20816;50.950;11.108;2023-03-01T07:28:42;12.90;;;5.23;;
34585;SDS011;20816;50.950;11.108;2023-03-01T07:31:09;8.97;;;5.07;;
34585;SDS011;20816;50.950;11.108;2023-03-01T07:33:36;7.30;;;5.23;;
34585;SDS011;20816;50.950;11.108;2023-03-01T07:36:02;9.80;;;3.97;;
34585;SDS011;20816;50.950;11.108;2023-03-01T07:38:30;7.93;;;4.10;;
34585;SDS011;20816;50.950;11.108;2023-03-01T07:40:58;14.40;;;5.00;;
34585;SDS011;20816;50.950;11.108;2023-03-01T07:43:27;10.70;;;5.30;;
34585;SDS011;20816;50.950;11.108;2023-03-01T07:45:54;12.23;;;5.77;;
34585;SDS011;20816;50.950;11.108;2023-03-01T07:48:21;13.80;;;6.17;;
34585;SDS011;20816;50.950;11.108;2023-03-01T07:50:47;9.33;;;5.57;;
34585;SDS011;20816;50.950;11.108;2023-03-01T07:53:14;14.33;;;5.83;;
34585;SDS011;20816;50.950;11.108;2023-03-01T07:55:41;10.93;;;5.43;;
34585;SDS011;20816;50.950;11.108;2023-03-01T07:58:07;13.27;;;5.93;;
34585;SDS011;20816;50.950;11.108;2023-03-01T08:00:36;16.93;;;6.83;;
34585;SDS011;20816;50.950;11.108;2023-03-01T08:03:03;12.00;;;6.00;;
34585;SDS011;20816;50.950;11.108;2023-03-01T08:05:29;7.73;;;5.27;;
34585;SDS011;20816;50.950;11.108;2023-03-01T08:07:56;10.30;;;4.97;;
34585;SDS011;20816;50.950;11.108;2023-03-01T08:10:23;9.27;;;5.33;;
34585;SDS011;20816;50.950;11.108;2023-03-01T08:12:51;8.77;;;5.67;;
34585;SDS011;20816;50.950;11.108;2023-03-01T08:15:19;10.60;;;5.63;;
34585;SDS011;20816;50.950;11.108;2023-03-01T08:17:45;7.30;;;5.03;;
34585;SDS011;20816;50.950;11.108;2023-03-01T08:20:15;7.63;;;4.03;;
34585;SDS011;20816;50.950;11.108;2023-03-01T08:22:45;5.80;;;4.37;;
34585;SDS011;20816;50.950;11.108;2023-03-01T08:25:17;9.13;;;4.73;;
34585;SDS011;20816;50.950;11.108;2023-03-01T08:27:43;6.90;;;4.37;;
34585;SDS011;20816;50.950;11.108;2023-03-01T08:30:10;11.77;;;5.43;;
34585;SDS011;20816;50.950;11.108;2023-03-01T08:32:38;10.90;;;5.00;;
34585;SDS011;20816;50.950;11.108;2023-03-01T08:35:05;9.60;;;4.73;;
34585;SDS011;20816;50.950;11.108;2023-03-01T08:37:38;7.17;;;4.80;;
34585;SDS011;20816;50.950;11.108;2023-03-01T08:40:05;6.67;;;4.63;;
34585;SDS011;20816;50.950;11.108;2023-03-01T08:42:35;8.67;;;5.57;;
34585;SDS011;20816;50.950;11.108;2023-03-01T08:45:05;8.43;;;5.00;;
34585;SDS011;20816;50.950;11.108;2023-03-01T08:47:33;9.03;;;5.40;;
34585;SDS011;20816;50.950;11.108;2023-03-01T08:50:00;11.60;;;5.13;;
34585;SDS011;20816;50.950;11.108;2023-03-01T08:52:27;8.70;;;4.87;;
34585;SDS011;20816;50.950;11.108;2023-03-01T08:54:54;7.43;;;4.97;;
34585;SDS011;20816;50.950;11.108;2023-03-01T08:57:20;10.10;;;6.07;;
34585;SDS011;20816;50.950;11.108;2023-03-01T08:59:47;8.77;;;5.23;;
34585;SDS011;20816;50.950;11.108;2023-03-01T09:02:16;14.33;;;6.57;;
34585;SDS011;20816;50.950;11.108;2023-03-01T09:04:44;14.87;;;5.17;;
34585;SDS011;20816;50.950;11.108;2023-03-01T09:07:11;11.83;;;5.33;;
34585;SDS011;20816;50.950;11.108;2023-03-01T09:09:37;11.77;;;6.10;;
34585;SDS011;20816;50.950;11.108;2023-03-01T09:12:04;7.67;;;5.13;;
34585;SDS011;20816;50.950;11.108;2023-03-01T09:14:31;8.70;;;5.50;;
34585;SDS011;20816;50.950;11.108;2023-03-01T09:16:58;8.53;;;5.03;;
34585;SDS011;20816;50.950;11.108;2023-03-01T09:19:26;9.90;;;5.50;;
34585;SDS011;20816;50.950;11.108;2023-03-01T09:21:53;9.83;;;6.63;;
34585;SDS011;20816;50.950;11.108;2023-03-01T09:24:20;16.07;;;6.97;;
34585;SDS011;20816;50.950;11.108;2023-03-01T09:26:48;11.83;;;5.93;;
34585;SDS011;20816;50.950;11.108;2023-03-01T09:29:16;6.40;;;4.83;;
34585;SDS011;20816;50.950;11.108;2023-03-01T09:31:48;12.90;;;6.13;;
34585;SDS011;20816;50.950;11.108;2023-03-01T09:34:15;12.23;;;6.07;;
34585;SDS011;20816;50.950;11.108;2023-03-01T09:36:49;14.20;;;5.60;;
34585;SDS011;20816;50.950;11.108;2023-03-01T09:39:17;11.13;;;6.07;;
34585;SDS011;20816;50.950;11.108;2023-03-01T09:47:33;9.33;;;5.43;;
34585;SDS011;20816;50.950;11.108;2023-03-01T09:53:02;9.30;;;5.37;;
34585;SDS011;20816;50.950;11.108;2023-03-01T10:04:13;9.67;;;5.13;;
34585;SDS011;20816;50.950;11.108;2023-03-01T10:10:08;14.50;;;5.67;;
34585;SDS011;20816;50.950;11.108;2023-03-01T10:12:42;9.30;;;5.27;;
34585;SDS011;20816;50.950;11.108;2023-03-01T10:15:11;9.87;;;5.17;;
34585;SDS011;20816;50.950;11.108;2023-03-01T10:17:53;7.67;;;5.30;;
34585;SDS011;20816;50.950;11.108;2023-03-01T10:20:25;13.87;;;5.67;;
34585;SDS011;20816;50.950;11.108;2023-03-01T10:22:59;8.67;;;4.30;;
34585;SDS011;20816;50.950;11.108;2023-03-01T10:25:36;9.07;;;5.53;;
34585;SDS011;20816;50.950;11.108;2023-03-01T10:31:15;9.37;;;4.47;;
34585;SDS011;20816;50.950;11.108;2023-03-01T10:33:55;6.83;;;4.93;;
34585;SDS011;20816;50.950;11.108;2023-03-01T10:36:23;11.80;;;5.67;;
34585;SDS011;20816;50.950;11.108;2023-03-01T10:38:56;10.90;;;5.33;;
34585;SDS011;20816;50.950;11.108;2023-03-01T10:41:24;9.50;;;4.30;;
34585;SDS011;20816;50.950;11.108;2023-03-01T10:43:54;7.60;;;5.03;;
34585;SDS011;20816;50.950;11.108;2023-03-01T10:49:19;9.33;;;4.93;;
34585;SDS011;20816;50.950;11.108;2023-03-01T10:51:50;13.80;;;5.80;;
34585;SDS011;20816;50.950;11.108;2023-03-01T10:54:19;11.77;;;5.57;;
34585;SDS011;20816;50.950;11.108;2023-03-01T10:56:50;9.37;;;5.90;;
34585;SDS011;20816;50.950;11.108;2023-03-01T10:59:33;8.93;;;5.17;;
34585;SDS011;20816;50.950;11.108;2023-03-01T11:05:01;11.20;;;4.67;;
34585;SDS011;20816;50.950;11.108;2023-03-01T11:10:20;12.60;;;6.10;;
34585;SDS011;20816;50.950;11.108;2023-03-01T11:12:50;10.63;;;5.43;;
34585;SDS011;20816;50.950;11.108;2023-03-01T11:15:26;10.57;;;5.33;;
34585;SDS011;20816;50.950;11.108;2023-03-01T11:17:56;9.67;;;5.43;;
34585;SDS011;20816;50.950;11.108;2023-03-01T11:20:38;9.67;;;4.87;;
34585;SDS011;20816;50.950;11.108;2023-03-01T11:23:08;8.67;;;5.17;;
34585;SDS011;20816;50.950;11.108;2023-03-01T11:25:42;9.93;;;5.90;;
34585;SDS011;20816;50.950;11.108;2023-03-01T11:28:13;14.60;;;5.93;;
34585;SDS011;20816;50.950;11.108;2023-03-01T11:30:47;12.47;;;5.90;;
34585;SDS011;20816;50.950;11.108;2023-03-01T11:39:02;12.23;;;6.33;;
34585;SDS011;20816;50.950;11.108;2023-03-01T11:41:37;11.90;;;6.97;;
34585;SDS011;20816;50.950;11.108;2023-03-01T11:44:13;10.23;;;5.53;;
34585;SDS011;20816;50.950;11.108;2023-03-01T11:52:29;9.03;;;5.37;;
34585;SDS011;20816;50.950;11.108;2023-03-01T11:57:58;10.20;;;5.60;;
34585;SDS011;20816;50.950;11.108;2023-03-01T12:14:39;11.83;;;4.70;;
34585;SDS011;20816;50.950;11.108;2023-03-01T12:26:23;6.80;;;4.70;;
34585;SDS011;20816;50.950;11.108;2023-03-01T12:28:50;11.23;;;5.27;;
34585;SDS011;20816;50.950;11.108;2023-03-01T12:31:30;8.67;;;4.73;;
34585;SDS011;20816;50.950;11.108;2023-03-01T12:40:03;10.90;;;6.47;;
34585;SDS011;20816;50.950;11.108;2023-03-01T12:47:59;10.57;;;4.80;;
34585;SDS011;20816;50.950;11.108;2023-03-01T12:50:41;10.20;;;5.20;;
34585;SDS011;20816;50.950;11.108;2023-03-01T12:53:20;8.10;;;5.03;;
34585;SDS011;20816;50.950;11.108;2023-03-01T12:55:50;8.97;;;5.13;;
34585;SDS011;20816;50.950;11.108;2023-03-01T13:01:22;9.03;;;5.20;;
34585;SDS011;20816;50.950;11.108;2023-03-01T13:03:59;8.13;;;4.30;;
34585;SDS011;20816;50.950;11.108;2023-03-01T13:09:30;13.40;;;5.57;;
34585;SDS011;20816;50.950;11.108;2023-03-01T13:12:41;12.73;;;6.20;;
34585;SDS011;20816;50.950;11.108;2023-03-01T13:18:03;10.37;;;5.37;;
34585;SDS011;20816;50.950;11.108;2023-03-01T13:20:55;7.07;;;4.47;;
34585;SDS011;20816;50.950;11.108;2023-03-01T13:23:28;10.20;;;5.20;;
34585;SDS011;20816;50.950;11.108;2023-03-01T13:26:02;13.83;;;5.10;;
34585;SDS011;20816;50.950;11.108;2023-03-01T13:30:58;9.30;;;5.60;;
34585;SDS011;20816;50.950;11.108;2023-03-01T13:35:55;8.80;;;5.00;;
34585;SDS011;20816;50.950;11.108;2023-03-01T13:38:48;12.47;;;5.70;;
34585;SDS011;20816;50.950;11.108;2023-03-01T13:41:53;10.10;;;4.93;;
34585;SDS011;20816;50.950;11.108;2023-03-01T13:46:51;11.73;;;4.97;;
34585;SDS011;20816;50.950;11.108;2023-03-01T13:49:21;9.97;;;6.03;;
34585;SDS011;20816;50.950;11.108;2023-03-01T13:51:56;11.33;;;7.60;;
34585;SDS011;20816;50.950;11.108;2023-03-01T13:54:26;10.13;;;6.43;;
34585;SDS011;20816;50.950;11.108;2023-03-01T13:56:56;12.93;;;7.70;;
34585;SDS011;20816;50.950;11.108;2023-03-01T13:59:25;9.70;;;6.13;;
34585;SDS011;20816;50.950;11.108;2023-03-01T14:01:53;10.13;;;6.27;;
34585;SDS011;20816;50.950;11.108;2023-03-01T14:04:28;10.00;;;6.03;;
34585;SDS011;20816;50.950;11.108;2023-03-01T14:07:08;12.23;;;5.93;;
34585;SDS011;20816;50.950;11.108;2023-03-01T14:09:44;12.10;;;8.40;;
34585;SDS011;20816;50.950;11.108;2023-03-01T14:15:19;7.50;;;5.27;;
34585;SDS011;20816;50.950;11.108;2023-03-01T14:18:02;7.47;;;4.00;;
34585;SDS011;20816;50.950;11.108;2023-03-01T14:20:40;7.07;;;4.47;;
34585;SDS011;20816;50.950;11.108;2023-03-01T14:23:10;7.20;;;4.50;;
34585;SDS011;20816;50.950;11.108;2023-03-01T14:25:45;5.57;;;3.83;;
34585;SDS011;20816;50.950;11.108;2023-03-01T14:28:19;7.50;;;4.83;;
34585;SDS011;20816;50.950;11.108;2023-03-01T14:30:53;8.30;;;3.90;;
34585;SDS011;20816;50.950;11.108;2023-03-01T14:33:29;9.47;;;5.70;;
34585;SDS011;20816;50.950;11.108;2023-03-01T14:36:04;9.37;;;4.87;;
34585;SDS011;20816;50.950;11.108;2023-03-01T14:38:36;8.63;;;4.77;;
34585;SDS011;20816;50.950;11.108;2023-03-01T14:41:07;10.00;;;4.53;;
34585;SDS011;20816;50.950;11.108;2023-03-01T14:43:37;9.00;;;4.13;;
34585;SDS011;20816;50.950;11.108;2023-03-01T14:46:16;9.50;;;4.93;;
34585;SDS011;20816;50.950;11.108;2023-03-01T14:48:51;9.07;;;5.20;;
34585;SDS011;20816;50.950;11.108;2023-03-01T14:51:19;9.03;;;4.17;;
34585;SDS011;20816;50.950;11.108;2023-03-01T14:53:46;10.37;;;5.90;;
34585;SDS011;20816;50.950;11.108;2023-03-01T14:56:16;11.60;;;5.73;;
34585;SDS011;20816;50.950;11.108;2023-03-01T14:58:46;7.90;;;5.53;;
34585;SDS011;20816;50.950;11.108;2023-03-01T15:01:17;11.53;;;5.53;;
34585;SDS011;20816;50.950;11.108;2023-03-01T15:03:48;11.67;;;4.43;;
34585;SDS011;20816;50.950;11.108;2023-03-01T15:06:18;8.30;;;4.37;;
34585;SDS011;20816;50.950;11.108;2023-03-01T15:08:56;10.37;;;6.33;;
34585;SDS011;20816;50.950;11.108;2023-03-01T15:11:30;8.57;;;5.03;;
34585;SDS011;20816;50.950;11.108;2023-03-01T15:13:58;9.77;;;4.27;;
34585;SDS011;20816;50.950;11.108;2023-03-01T15:16:32;14.40;;;5.00;;
34585;SDS011;20816;50.950;11.108;2023-03-01T15:19:04;8.90;;;5.13;;
34585;SDS011;20816;50.950;11.108;2023-03-01T15:21:35;13.23;;;5.30;;
34585;SDS011;20816;50.950;11.108;2023-03-01T15:26:57;13.50;;;5.80;;
34585;SDS011;20816;50.950;11.108;2023-03-01T15:29:28;6.73;;;3.83;;
34585;SDS011;20816;50.950;11.108;2023-03-01T15:31:58;8.97;;;4.87;;
34585;SDS011;20816;50.950;11.108;2023-03-01T15:34:31;7.53;;;4.10;;
34585;SDS011;20816;50.950;11.108;2023-03-01T15:37:06;7.87;;;4.67;;
34585;SDS011;20816;50.950;11.108;2023-03-01T15:40:02;8.80;;;4.37;;
34585;SDS011;20816;50.950;11.108;2023-03-01T15:45:10;9.03;;;5.30;;
34585;SDS011;20816;50.950;11.108;2023-03-01T15:48:17;10.83;;;4.13;;
34585;SDS011;20816;50.950;11.108;2023-03-01T15:50:53;11.13;;;6.50;;
34585;SDS011;20816;50.950;11.108;2023-03-01T15:53:21;7.10;;;4.90;;
34585;SDS011;20816;50.950;11.108;2023-03-01T15:55:48;15.23;;;7.17;;
34585;SDS011;20816;50.950;11.108;2023-03-01T15:58:20;12.47;;;6.00;;
34585;SDS011;20816;50.950;11.108;2023-03-01T16:00:48;11.93;;;5.37;;
34585;SDS011;20816;50.950;11.108;2023-03-01T16:03:27;12.37;;;6.57;;
34585;SDS011;20816;50.950;11.108;2023-03-01T16:05:54;16.30;;;6.17;;
34585;SDS011;20816;50.950;11.108;2023-03-01T16:08:21;10.23;;;4.93;;
34585;SDS011;20816;50.950;11.108;2023-03-01T16:10:48;10.70;;;5.70;;
34585;SDS011;20816;50.950;11.108;2023-03-01T16:13:35;10.50;;;6.03;;
34585;SDS011;20816;50.950;11.108;2023-03-01T16:16:02;10.80;;;6.20;;
34585;SDS011;20816;50.950;11.108;2023-03-01T16:18:29;8.87;;;5.27;;
34585;SDS011;20816;50.950;11.108;2023-03-01T16:20:58;9.47;;;4.70;;
34585;SDS011;20816;50.950;11.108;2023-03-01T16:23:26;9.10;;;4.40;;
34585;SDS011;20816;50.950;11.108;2023-03-01T16:25:52;10.87;;;4.57;;
34585;SDS011;20816;50.950;11.108;2023-03-01T16:28:19;7.67;;;4.47;;
34585;SDS011;20816;50.950;11.108;2023-03-01T16:30:46;8.43;;;4.60;;
34585;SDS011;20816;50.950;11.108;2023-03-01T16:33:20;6.33;;;4.27;;
34585;SDS011;20816;50.950;11.108;2023-03-01T16:36:00;9.10;;;4.90;;
34585;SDS011;20816;50.950;11.108;2023-03-01T16:38:31;10.43;;;5.77;;
34585;SDS011;20816;50.950;11.108;2023-03-01T16:40:58;12.73;;;4.80;;
34585;SDS011;20816;50.950;11.108;2023-03-01T16:43:27;10.97;;;4.97;;
34585;SDS011;20816;50.950;11.108;2023-03-01T16:45:54;9.37;;;6.10;;
34585;SDS011;20816;50.950;11.108;2023-03-01T16:48:20;22.83;;;6.30;;